sensor_id;sensor_type;location;lat;lon;timestamp;pressure;altitude;pressure_sealevel;temperature;humidity
4392;BME280;2210;51.938;8.488;2023-02-19T00:00:38;100470.34;;;9.19;100.00
4392;BME280;2210;51.938;8.488;2023-02-19T00:04:41;100475.84;;;9.19;100.00
4392;BME280;2210;51.938;8.488;2023-02-19T00:08:41;100473.34;;;9.17;100.00
4392;BME280;2210;51.938;8.488;2023-02-19T00:12:44;100470.81;;;9.16;100.00
4392;BME280;2210;51.938;8.488;2023-02-19T00:16:54;100484.78;;;9.14;100.00
4392;BME280;2210;51.938;8.488;2023-02-19T00:20:55;100473.66;;;9.09;100.00
4392;BME280;2210;51.938;8.488;2023-02-19T00:25:05;100462.41;;;9.10;100.00
4392;BME280;2210;51.938;8.488;2023-02-19T00:29:05;100457.13;;;9.09;100.00
4392;BME280;2210;51.938;8.488;2023-02-19T00:33:09;100451.63;;;9.09;100.00
4392;BME280;2210;51.938;8.488;2023-02-19T00:37:09;100457.50;;;9.13;100.00
4392;BME280;2210;51.938;8.488;2023-02-19T00:41:28;100434.44;;;9.14;100.00
4392;BME280;2210;51.938;8.488;2023-02-19T00:45:29;100431.22;;;9.17;100.00
4392;BME280;2210;51.938;8.488;2023-02-19T00:49:48;100433.53;;;9.20;100.00
4392;BME280;2210;51.938;8.488;2023-02-19T00:53:54;100437.34;;;9.19;100.00
4392;BME280;2210;51.938;8.488;2023-02-19T00:58:10;100430.78;;;9.20;100.00
4392;BME280;2210;51.938;8.488;2023-02-19T01:02:10;100427.56;;;9.23;100.00
4392;BME280;2210;51.938;8.488;2023-02-19T01:06:12;100434.28;;;9.27;100.00
4392;BME280;2210;51.938;8.488;2023-02-19T01:10:16;100431.53;;;9.27;100.00
4392;BME280;2210;51.938;8.488;2023-02-19T01:14:28;100435.03;;;9.34;100.00
4392;BME280;2210;51.938;8.488;2023-02-19T01:18:35;100427.38;;;9.36;100.00
4392;BME280;2210;51.938;8.488;2023-02-19T01:22:35;100430.72;;;9.38;100.00
4392;BME280;2210;51.938;8.488;2023-02-19T01:26:44;100438.53;;;9.41;100.00
4392;BME280;2210;51.938;8.488;2023-02-19T01:30:45;100424.31;;;9.44;100.00
4392;BME280;2210;51.938;8.488;2023-02-19T01:34:48;100423.25;;;9.45;100.00
4392;BME280;2210;51.938;8.488;2023-02-19T01:38:54;100429.97;;;9.50;100.00
4392;BME280;2210;51.938;8.488;2023-02-19T01:42:57;100430.09;;;9.55;100.00
4392;BME280;2210;51.938;8.488;2023-02-19T01:47:00;100428.41;;;9.54;100.00
4392;BME280;2210;51.938;8.488;2023-02-19T01:51:04;100428.41;;;9.54;100.00
4392;BME280;2210;51.938;8.488;2023-02-19T01:55:10;100435.38;;;9.56;100.00
4392;BME280;2210;51.938;8.488;2023-02-19T01:59:11;100436.44;;;9.55;100.00
4392;BME280;2210;51.938;8.488;2023-02-19T02:03:12;100422.06;;;9.53;100.00
4392;BME280;2210;51.938;8.488;2023-02-19T02:07:13;100426.75;;;9.53;100.00
4392;BME280;2210;51.938;8.488;2023-02-19T02:11:35;100430.09;;;9.55;100.00
4392;BME280;2210;51.938;8.488;2023-02-19T02:15:59;100423.97;;;9.53;100.00
4392;BME280;2210;51.938;8.488;2023-02-19T02:24:20;100433.53;;;9.50;100.00
4392;BME280;2210;51.938;8.488;2023-02-19T02:37:42;100417.03;;;9.50;100.00
4392;BME280;2210;51.938;8.488;2023-02-19T02:41:58;100418.19;;;9.42;100.00
4392;BME280;2210;51.938;8.488;2023-02-19T02:46:25;100419.28;;;9.41;100.00
4392;BME280;2210;51.938;8.488;2023-02-19T02:50:40;100423.94;;;9.41;100.00
4392;BME280;2210;51.938;8.488;2023-02-19T02:54:41;100433.03;;;9.41;100.00
4392;BME280;2210;51.938;8.488;2023-02-19T02:59:06;100421.19;;;9.41;100.00
4392;BME280;2210;51.938;8.488;2023-02-19T03:03:11;100421.41;;;9.39;100.00
4392;BME280;2210;51.938;8.488;2023-02-19T03:07:15;100427.53;;;9.41;100.00
4392;BME280;2210;51.938;8.488;2023-02-19T03:11:16;100423.09;;;9.40;100.00
4392;BME280;2210;51.938;8.488;2023-02-19T03:15:40;100415.91;;;9.39;100.00
4392;BME280;2210;51.938;8.488;2023-02-19T03:20:04;100418.06;;;9.37;100.00
4392;BME280;2210;51.938;8.488;2023-02-19T03:24:08;100423.56;;;9.37;100.00
4392;BME280;2210;51.938;8.488;2023-02-19T03:28:34;100422.31;;;9.33;100.00
4392;BME280;2210;51.938;8.488;2023-02-19T03:33:11;100419.38;;;9.35;100.00
4392;BME280;2210;51.938;8.488;2023-02-19T03:37:21;100424.63;;;9.36;100.00
4392;BME280;2210;51.938;8.488;2023-02-19T03:46:30;100447.09;;;9.33;100.00
4392;BME280;2210;51.938;8.488;2023-02-19T03:55:31;100451.16;;;9.31;100.00
4392;BME280;2210;51.938;8.488;2023-02-19T04:04:31;100465.13;;;9.29;100.00
4392;BME280;2210;51.938;8.488;2023-02-19T04:08:34;100466.66;;;9.25;100.00
4392;BME280;2210;51.938;8.488;2023-02-19T04:12:38;100464.38;;;9.22;100.00
4392;BME280;2210;51.938;8.488;2023-02-19T04:16:44;100477.53;;;9.20;100.00
4392;BME280;2210;51.938;8.488;2023-02-19T04:20:47;100489.38;;;9.20;100.00
4392;BME280;2210;51.938;8.488;2023-02-19T04:24:49;100486.84;;;9.19;100.00
4392;BME280;2210;51.938;8.488;2023-02-19T04:28:53;100486.22;;;9.17;100.00
4392;BME280;2210;51.938;8.488;2023-02-19T04:32:54;100492.94;;;9.21;100.00
4392;BME280;2210;51.938;8.488;2023-02-19T04:37:00;100504.66;;;9.16;100.00
4392;BME280;2210;51.938;8.488;2023-02-19T04:41:00;100502.97;;;9.15;100.00
4392;BME280;2210;51.938;8.488;2023-02-19T04:45:01;100515.88;;;9.15;100.00
4392;BME280;2210;51.938;8.488;2023-02-19T04:49:01;100515.25;;;9.13;100.00
4392;BME280;2210;51.938;8.488;2023-02-19T04:53:13;100536.19;;;9.14;100.00
4392;BME280;2210;51.938;8.488;2023-02-19T04:57:14;100541.72;;;9.14;100.00
4392;BME280;2210;51.938;8.488;2023-02-19T05:01:14;100550.78;;;9.14;100.00
4392;BME280;2210;51.938;8.488;2023-02-19T05:05:23;100544.91;;;9.10;100.00
4392;BME280;2210;51.938;8.488;2023-02-19T05:09:26;100562.94;;;9.06;100.00
4392;BME280;2210;51.938;8.488;2023-02-19T05:13:27;100567.34;;;9.07;100.00
4392;BME280;2210;51.938;8.488;2023-02-19T05:17:39;100575.00;;;9.05;100.00
4392;BME280;2210;51.938;8.488;2023-02-19T05:21:43;100580.97;;;9.02;100.00
4392;BME280;2210;51.938;8.488;2023-02-19T05:25:43;100577.97;;;9.04;100.00
4392;BME280;2210;51.938;8.488;2023-02-19T05:29:43;100574.38;;;9.03;100.00
4392;BME280;2210;51.938;8.488;2023-02-19T05:33:43;100583.72;;;9.02;100.00
4392;BME280;2210;51.938;8.488;2023-02-19T05:37:47;100581.84;;;8.96;100.00
4392;BME280;2210;51.938;8.488;2023-02-19T05:41:47;100582.53;;;8.91;100.00
4392;BME280;2210;51.938;8.488;2023-02-19T05:45:47;100602.03;;;8.90;100.00
4392;BME280;2210;51.938;8.488;2023-02-19T05:49:47;100607.72;;;8.88;100.00
4392;BME280;2210;51.938;8.488;2023-02-19T05:53:48;100603.97;;;8.83;100.00
4392;BME280;2210;51.938;8.488;2023-02-19T05:57:48;100616.03;;;8.82;100.00
4392;BME280;2210;51.938;8.488;2023-02-19T06:01:50;100618.16;;;8.80;100.00
4392;BME280;2210;51.938;8.488;2023-02-19T06:05:51;100616.47;;;8.78;100.00
4392;BME280;2210;51.938;8.488;2023-02-19T06:09:51;100632.13;;;8.78;100.00
4392;BME280;2210;51.938;8.488;2023-02-19T06:14:04;100649.91;;;8.75;100.00
4392;BME280;2210;51.938;8.488;2023-02-19T06:18:07;100652.25;;;8.72;100.00
4392;BME280;2210;51.938;8.488;2023-02-19T06:22:13;100656.09;;;8.71;100.00
4392;BME280;2210;51.938;8.488;2023-02-19T06:30:16;100668.38;;;8.68;100.00
4392;BME280;2210;51.938;8.488;2023-02-19T06:34:26;100671.72;;;8.70;100.00
4392;BME280;2210;51.938;8.488;2023-02-19T06:38:32;100681.25;;;8.68;100.00
4392;BME280;2210;51.938;8.488;2023-02-19T06:42:33;100685.72;;;8.62;100.00
4392;BME280;2210;51.938;8.488;2023-02-19T06:46:33;100686.78;;;8.61;100.00
4392;BME280;2210;51.938;8.488;2023-02-19T06:50:43;100698.63;;;8.62;100.00
4392;BME280;2210;51.938;8.488;2023-02-19T06:54:43;100702.44;;;8.60;100.00
4392;BME280;2210;51.938;8.488;2023-02-19T06:58:44;100706.25;;;8.59;100.00
4392;BME280;2210;51.938;8.488;2023-02-19T07:02:44;100718.31;;;8.58;100.00
4392;BME280;2210;51.938;8.488;2023-02-19T07:06:44;100732.25;;;8.57;100.00
4392;BME280;2210;51.938;8.488;2023-02-19T07:10:44;100770.16;;;8.41;100.00
4392;BME280;2210;51.938;8.488;2023-02-19T07:14:45;100778.56;;;7.61;100.00
4392;BME280;2210;51.938;8.488;2023-02-19T07:18:48;100793.91;;;7.15;100.00
4392;BME280;2210;51.938;8.488;2023-02-19T07:23:01;100804.03;;;7.01;100.00
4392;BME280;2210;51.938;8.488;2023-02-19T07:27:02;100812.66;;;7.05;100.00
4392;BME280;2210;51.938;8.488;2023-02-19T07:31:03;100821.13;;;7.17;100.00
4392;BME280;2210;51.938;8.488;2023-02-19T07:35:03;100848.50;;;7.03;100.00
4392;BME280;2210;51.938;8.488;2023-02-19T07:39:03;100851.09;;;6.70;100.00
4392;BME280;2210;51.938;8.488;2023-02-19T07:43:04;100871.13;;;6.64;100.00
4392;BME280;2210;51.938;8.488;2023-02-19T07:47:04;100872.81;;;6.65;100.00
4392;BME280;2210;51.938;8.488;2023-02-19T07:51:07;100891.06;;;6.51;100.00
4392;BME280;2210;51.938;8.488;2023-02-19T07:55:13;100900.94;;;6.45;100.00
4392;BME280;2210;51.938;8.488;2023-02-19T07:59:14;100899.63;;;6.41;100.00
4392;BME280;2210;51.938;8.488;2023-02-19T08:03:14;100899.28;;;6.51;100.00
4392;BME280;2210;51.938;8.488;2023-02-19T08:07:18;100914.03;;;6.50;100.00
4392;BME280;2210;51.938;8.488;2023-02-19T08:11:21;100908.78;;;6.55;100.00
4392;BME280;2210;51.938;8.488;2023-02-19T08:16:09;100911.94;;;6.52;100.00
4392;BME280;2210;51.938;8.488;2023-02-19T08:20:04;100928.03;;;6.33;100.00
4392;BME280;2210;51.938;8.488;2023-02-19T08:24:05;100936.28;;;6.40;100.00
4392;BME280;2210;51.938;8.488;2023-02-19T08:28:06;100924.13;;;6.49;100.00
4392;BME280;2210;51.938;8.488;2023-02-19T08:32:07;100937.97;;;6.41;100.00
4392;BME280;2210;51.938;8.488;2023-02-19T08:36:08;100948.63;;;6.57;100.00
4392;BME280;2210;51.938;8.488;2023-02-19T08:40:11;100946.50;;;6.53;100.00
4392;BME280;2210;51.938;8.488;2023-02-19T08:44:12;100945.56;;;6.39;100.00
4392;BME280;2210;51.938;8.488;2023-02-19T08:48:13;100950.53;;;6.57;100.00
4392;BME280;2210;51.938;8.488;2023-02-19T08:52:13;100966.31;;;6.55;100.00
4392;BME280;2210;51.938;8.488;2023-02-19T08:56:15;100975.91;;;6.44;100.00
4392;BME280;2210;51.938;8.488;2023-02-19T09:00:16;100987.69;;;6.38;100.00
4392;BME280;2210;51.938;8.488;2023-02-19T09:04:16;100989.34;;;6.32;100.00
4392;BME280;2210;51.938;8.488;2023-02-19T09:08:17;101002.56;;;6.29;100.00
4392;BME280;2210;51.938;8.488;2023-02-19T09:12:17;101004.06;;;6.31;100.00
4392;BME280;2210;51.938;8.488;2023-02-19T09:16:17;101012.97;;;6.40;100.00
4392;BME280;2210;51.938;8.488;2023-02-19T09:20:18;101018.03;;;6.36;100.00
4392;BME280;2210;51.938;8.488;2023-02-19T09:24:18;101039.19;;;6.49;100.00
4392;BME280;2210;51.938;8.488;2023-02-19T09:28:19;101041.59;;;6.37;100.00
4392;BME280;2210;51.938;8.488;2023-02-19T09:32:20;101044.28;;;6.31;100.00
4392;BME280;2210;51.938;8.488;2023-02-19T09:36:21;101040.56;;;6.38;100.00
4392;BME280;2210;51.938;8.488;2023-02-19T09:40:21;101056.78;;;6.40;100.00
4392;BME280;2210;51.938;8.488;2023-02-19T09:44:30;101076.50;;;6.29;100.00
4392;BME280;2210;51.938;8.488;2023-02-19T09:48:31;101079.56;;;6.19;100.00
4392;BME280;2210;51.938;8.488;2023-02-19T09:52:36;101084.38;;;6.17;100.00
4392;BME280;2210;51.938;8.488;2023-02-19T09:56:37;101103.94;;;6.14;100.00
4392;BME280;2210;51.938;8.488;2023-02-19T10:00:38;101114.72;;;6.37;100.00
4392;BME280;2210;51.938;8.488;2023-02-19T10:04:43;101127.94;;;6.33;100.00
4392;BME280;2210;51.938;8.488;2023-02-19T10:08:44;101131.53;;;6.34;100.00
4392;BME280;2210;51.938;8.488;2023-02-19T10:12:46;101141.47;;;6.35;100.00
4392;BME280;2210;51.938;8.488;2023-02-19T10:16:49;101147.66;;;6.44;100.00
4392;BME280;2210;51.938;8.488;2023-02-19T10:20:53;101159.38;;;6.37;100.00
4392;BME280;2210;51.938;8.488;2023-02-19T10:24:57;101169.00;;;6.33;100.00
4392;BME280;2210;51.938;8.488;2023-02-19T10:28:58;101171.19;;;6.38;100.00
4392;BME280;2210;51.938;8.488;2023-02-19T10:33:02;101178.19;;;6.40;100.00
4392;BME280;2210;51.938;8.488;2023-02-19T10:37:03;101188.19;;;6.33;100.00
4392;BME280;2210;51.938;8.488;2023-02-19T10:41:06;101203.88;;;6.39;100.00
4392;BME280;2210;51.938;8.488;2023-02-19T10:45:16;101211.19;;;6.54;100.00
4392;BME280;2210;51.938;8.488;2023-02-19T10:49:24;101205.84;;;6.67;100.00
4392;BME280;2210;51.938;8.488;2023-02-19T10:57:38;101202.59;;;6.79;100.00
4392;BME280;2210;51.938;8.488;2023-02-19T11:02:14;101203.38;;;6.94;100.00
4392;BME280;2210;51.938;8.488;2023-02-19T11:06:16;101209.84;;;6.86;100.00
4392;BME280;2210;51.938;8.488;2023-02-19T11:10:22;101211.19;;;6.97;100.00
4392;BME280;2210;51.938;8.488;2023-02-19T11:14:28;101218.38;;;6.98;100.00
4392;BME280;2210;51.938;8.488;2023-02-19T11:18:32;101218.50;;;6.90;100.00
4392;BME280;2210;51.938;8.488;2023-02-19T11:22:42;101228.09;;;7.01;100.00
4392;BME280;2210;51.938;8.488;2023-02-19T11:26:45;101232.56;;;7.02;100.00
4392;BME280;2210;51.938;8.488;2023-02-19T11:30:51;101234.19;;;6.96;100.00
4392;BME280;2210;51.938;8.488;2023-02-19T11:35:12;101233.72;;;7.14;100.00
4392;BME280;2210;51.938;8.488;2023-02-19T11:43:40;101220.69;;;7.23;100.00
4392;BME280;2210;51.938;8.488;2023-02-19T11:48:18;101219.63;;;7.46;100.00
4392;BME280;2210;51.938;8.488;2023-02-19T11:52:37;101215.56;;;7.41;100.00
4392;BME280;2210;51.938;8.488;2023-02-19T11:56:41;101210.38;;;7.53;100.00
4392;BME280;2210;51.938;8.488;2023-02-19T12:00:52;101203.38;;;7.79;100.00
4392;BME280;2210;51.938;8.488;2023-02-19T12:44:58;101239.59;;;8.03;100.00
4392;BME280;2210;51.938;8.488;2023-02-19T12:49:06;101242.31;;;7.96;100.00
4392;BME280;2210;51.938;8.488;2023-02-19T12:57:42;101246.53;;;7.92;100.00
4392;BME280;2210;51.938;8.488;2023-02-19T13:01:49;101261.91;;;7.86;100.00
4392;BME280;2210;51.938;8.488;2023-02-19T13:10:39;101258.06;;;7.81;100.00
4392;BME280;2210;51.938;8.488;2023-02-19T13:14:47;101263.81;;;7.86;100.00
4392;BME280;2210;51.938;8.488;2023-02-19T13:19:00;101260.50;;;7.97;100.00
4392;BME280;2210;51.938;8.488;2023-02-19T13:23:23;101265.53;;;7.87;100.00
4392;BME280;2210;51.938;8.488;2023-02-19T13:28:02;101261.78;;;8.01;100.00
4392;BME280;2210;51.938;8.488;2023-02-19T13:36:44;101260.81;;;8.16;100.00
4392;BME280;2210;51.938;8.488;2023-02-19T13:41:18;101274.75;;;8.14;100.00
4392;BME280;2210;51.938;8.488;2023-02-19T13:45:29;101273.50;;;8.17;100.00
4392;BME280;2210;51.938;8.488;2023-02-19T13:57:43;101256.81;;;8.18;100.00
4392;BME280;2210;51.938;8.488;2023-02-19T14:06:03;101264.19;;;8.18;99.74
4392;BME280;2210;51.938;8.488;2023-02-19T14:10:11;101275.91;;;8.33;100.00
4392;BME280;2210;51.938;8.488;2023-02-19T14:14:34;101276.25;;;8.17;100.00
4392;BME280;2210;51.938;8.488;2023-02-19T14:18:45;101286.84;;;8.20;100.00
4392;BME280;2210;51.938;8.488;2023-02-19T14:26:46;101298.63;;;8.14;95.93
4392;BME280;2210;51.938;8.488;2023-02-19T14:30:53;101295.88;;;8.14;97.12
4392;BME280;2210;51.938;8.488;2023-02-19T14:34:54;101303.59;;;7.97;97.85
4392;BME280;2210;51.938;8.488;2023-02-19T14:38:59;101316.13;;;8.06;100.00
4392;BME280;2210;51.938;8.488;2023-02-19T14:43:03;101310.38;;;8.01;100.00
4392;BME280;2210;51.938;8.488;2023-02-19T14:47:13;101314.16;;;8.00;100.00
4392;BME280;2210;51.938;8.488;2023-02-19T14:51:34;101331.47;;;8.00;100.00
4392;BME280;2210;51.938;8.488;2023-02-19T14:55:38;101320.66;;;7.92;100.00
4392;BME280;2210;51.938;8.488;2023-02-19T14:59:39;101302.72;;;7.96;100.00
4392;BME280;2210;51.938;8.488;2023-02-19T15:03:39;101293.69;;;8.02;100.00
4392;BME280;2210;51.938;8.488;2023-02-19T15:07:41;101292.34;;;7.91;100.00
4392;BME280;2210;51.938;8.488;2023-02-19T15:11:42;101278.63;;;7.91;100.00
4392;BME280;2210;51.938;8.488;2023-02-19T15:15:44;101274.84;;;7.92;99.82
4392;BME280;2210;51.938;8.488;2023-02-19T15:19:48;101263.91;;;7.99;100.00
4392;BME280;2210;51.938;8.488;2023-02-19T15:23:49;101262.16;;;7.91;100.00
4392;BME280;2210;51.938;8.488;2023-02-19T15:27:49;101257.66;;;7.84;100.00
4392;BME280;2210;51.938;8.488;2023-02-19T15:31:56;101267.84;;;7.90;100.00
4392;BME280;2210;51.938;8.488;2023-02-19T15:35:59;101272.47;;;7.83;100.00
4392;BME280;2210;51.938;8.488;2023-02-19T15:40:04;101257.47;;;7.85;100.00
4392;BME280;2210;51.938;8.488;2023-02-19T15:48:46;101249.00;;;7.80;100.00
4392;BME280;2210;51.938;8.488;2023-02-19T15:57:14;101252.38;;;7.82;100.00
4392;BME280;2210;51.938;8.488;2023-02-19T16:01:22;101261.59;;;7.74;100.00
4392;BME280;2210;51.938;8.488;2023-02-19T16:05:25;101276.78;;;7.70;100.00
4392;BME280;2210;51.938;8.488;2023-02-19T16:09:29;101281.84;;;7.67;100.00
4392;BME280;2210;51.938;8.488;2023-02-19T16:13:32;101296.16;;;7.62;100.00
4392;BME280;2210;51.938;8.488;2023-02-19T16:17:43;101298.41;;;7.52;100.00
4392;BME280;2210;51.938;8.488;2023-02-19T16:21:44;101301.16;;;7.52;100.00
4392;BME280;2210;51.938;8.488;2023-02-19T16:25:45;101311.13;;;7.38;100.00
4392;BME280;2210;51.938;8.488;2023-02-19T16:29:49;101316.69;;;7.45;100.00
4392;BME280;2210;51.938;8.488;2023-02-19T16:33:50;101317.97;;;7.49;100.00
4392;BME280;2210;51.938;8.488;2023-02-19T16:37:58;101320.69;;;7.42;100.00
4392;BME280;2210;51.938;8.488;2023-02-19T16:42:13;101320.50;;;7.43;100.00
4392;BME280;2210;51.938;8.488;2023-02-19T16:46:14;101323.44;;;7.42;100.00
4392;BME280;2210;51.938;8.488;2023-02-19T16:50:19;101326.41;;;7.47;100.00
4392;BME280;2210;51.938;8.488;2023-02-19T16:54:20;101333.56;;;7.41;100.00
4392;BME280;2210;51.938;8.488;2023-02-19T16:58:21;101342.75;;;7.34;100.00
4392;BME280;2210;51.938;8.488;2023-02-19T17:02:22;101348.69;;;7.37;100.00
4392;BME280;2210;51.938;8.488;2023-02-19T17:06:23;101353.13;;;7.17;100.00
4392;BME280;2210;51.938;8.488;2023-02-19T17:10:26;101353.78;;;7.19;100.00
4392;BME280;2210;51.938;8.488;2023-02-19T17:14:27;101359.53;;;7.24;100.00
4392;BME280;2210;51.938;8.488;2023-02-19T17:18:27;101347.53;;;7.25;100.00
4392;BME280;2210;51.938;8.488;2023-02-19T17:22:30;101357.13;;;7.14;100.00
4392;BME280;2210;51.938;8.488;2023-02-19T17:26:34;101353.91;;;7.11;100.00
4392;BME280;2210;51.938;8.488;2023-02-19T17:30:37;101363.72;;;7.20;100.00
4392;BME280;2210;51.938;8.488;2023-02-19T17:34:41;101362.53;;;7.07;100.00
4392;BME280;2210;51.938;8.488;2023-02-19T17:38:41;101363.19;;;7.09;100.00
4392;BME280;2210;51.938;8.488;2023-02-19T17:42:41;101359.59;;;7.09;100.00
4392;BME280;2210;51.938;8.488;2023-02-19T17:46:42;101372.84;;;7.05;100.00
4392;BME280;2210;51.938;8.488;2023-02-19T17:50:44;101373.50;;;7.07;100.00
4392;BME280;2210;51.938;8.488;2023-02-19T17:54:44;101367.28;;;6.99;100.00
4392;BME280;2210;51.938;8.488;2023-02-19T17:58:45;101358.28;;;7.05;100.00
4392;BME280;2210;51.938;8.488;2023-02-19T18:02:45;101368.69;;;7.09;100.00
4392;BME280;2210;51.938;8.488;2023-02-19T18:06:46;101360.94;;;6.98;100.00
4392;BME280;2210;51.938;8.488;2023-02-19T18:10:47;101356.25;;;6.92;100.00
4392;BME280;2210;51.938;8.488;2023-02-19T18:14:47;101363.19;;;7.09;100.00
4392;BME280;2210;51.938;8.488;2023-02-19T18:18:48;101367.94;;;7.01;100.00
4392;BME280;2210;51.938;8.488;2023-02-19T18:22:48;101371.88;;;7.13;100.00
4392;BME280;2210;51.938;8.488;2023-02-19T18:26:48;101374.16;;;7.09;100.00
4392;BME280;2210;51.938;8.488;2023-02-19T18:30:49;101377.16;;;7.15;100.00
4392;BME280;2210;51.938;8.488;2023-02-19T18:34:50;101388.53;;;7.12;100.00
4392;BME280;2210;51.938;8.488;2023-02-19T18:38:51;101391.25;;;7.12;100.00
4392;BME280;2210;51.938;8.488;2023-02-19T18:42:54;101400.53;;;7.11;100.00
4392;BME280;2210;51.938;8.488;2023-02-19T18:47:08;101407.44;;;7.06;100.00
4392;BME280;2210;51.938;8.488;2023-02-19T18:51:11;101402.91;;;7.14;100.00
4392;BME280;2210;51.938;8.488;2023-02-19T18:55:11;101404.34;;;7.09;100.00
4392;BME280;2210;51.938;8.488;2023-02-19T18:59:12;101406.28;;;7.16;100.00
4392;BME280;2210;51.938;8.488;2023-02-19T19:03:13;101407.31;;;7.15;100.00
4392;BME280;2210;51.938;8.488;2023-02-19T19:07:13;101407.53;;;7.13;100.00
4392;BME280;2210;51.938;8.488;2023-02-19T19:11:13;101402.03;;;7.13;100.00
4392;BME280;2210;51.938;8.488;2023-02-19T19:15:14;101407.53;;;7.13;100.00
4392;BME280;2210;51.938;8.488;2023-02-19T19:19:15;101414.13;;;7.19;100.00
4392;BME280;2210;51.938;8.488;2023-02-19T19:23:16;101414.72;;;7.14;100.00
4392;BME280;2210;51.938;8.488;2023-02-19T19:27:19;101418.03;;;7.09;100.00
4392;BME280;2210;51.938;8.488;2023-02-19T19:31:21;101417.38;;;7.07;100.00
4392;BME280;2210;51.938;8.488;2023-02-19T19:35:30;101415.47;;;7.08;100.00
4392;BME280;2210;51.938;8.488;2023-02-19T19:39:30;101410.06;;;7.15;100.00
4392;BME280;2210;51.938;8.488;2023-02-19T19:43:32;101402.75;;;7.00;100.00
4392;BME280;2210;51.938;8.488;2023-02-19T19:47:32;101405.19;;;6.95;100.00
4392;BME280;2210;51.938;8.488;2023-02-19T19:51:33;101408.09;;;7.08;100.00
4392;BME280;2210;51.938;8.488;2023-02-19T19:55:37;101401.94;;;7.06;100.00
4392;BME280;2210;51.938;8.488;2023-02-19T19:59:37;101414.81;;;7.06;100.00
4392;BME280;2210;51.938;8.488;2023-02-19T20:03:38;101420.22;;;6.99;100.00
4392;BME280;2210;51.938;8.488;2023-02-19T20:07:38;101436.28;;;7.02;100.00
4392;BME280;2210;51.938;8.488;2023-02-19T20:11:46;101431.59;;;6.96;100.00
4392;BME280;2210;51.938;8.488;2023-02-19T20:15:51;101440.09;;;7.01;100.00
4392;BME280;2210;51.938;8.488;2023-02-19T20:19:54;101440.84;;;6.95;100.00
4392;BME280;2210;51.938;8.488;2023-02-19T20:23:54;101447.75;;;6.91;100.00
4392;BME280;2210;51.938;8.488;2023-02-19T20:27:54;101459.34;;;6.93;100.00
4392;BME280;2210;51.938;8.488;2023-02-19T20:31:56;101457.56;;;7.00;100.00
4392;BME280;2210;51.938;8.488;2023-02-19T20:35:59;101444.22;;;6.97;100.00
4392;BME280;2210;51.938;8.488;2023-02-19T20:39:59;101445.19;;;7.04;100.00
4392;BME280;2210;51.938;8.488;2023-02-19T20:44:00;101437.72;;;6.98;100.00
4392;BME280;2210;51.938;8.488;2023-02-19T20:48:00;101435.94;;;6.90;100.00
4392;BME280;2210;51.938;8.488;2023-02-19T20:52:06;101432.03;;;6.85;100.00
4392;BME280;2210;51.938;8.488;2023-02-19T20:56:09;101424.03;;;6.83;100.00
4392;BME280;2210;51.938;8.488;2023-02-19T21:00:11;101407.22;;;6.86;100.00
4392;BME280;2210;51.938;8.488;2023-02-19T21:04:12;101415.78;;;6.83;100.00
4392;BME280;2210;51.938;8.488;2023-02-19T21:08:15;101420.63;;;6.81;100.00
4392;BME280;2210;51.938;8.488;2023-02-19T21:12:17;101415.50;;;6.78;100.00
4392;BME280;2210;51.938;8.488;2023-02-19T21:16:17;101431.59;;;6.81;100.00
4392;BME280;2210;51.938;8.488;2023-02-19T21:20:17;101430.72;;;6.81;100.00
4392;BME280;2210;51.938;8.488;2023-02-19T21:24:17;101423.56;;;6.80;100.00
4392;BME280;2210;51.938;8.488;2023-02-19T21:28:18;101432.03;;;6.85;100.00
4392;BME280;2210;51.938;8.488;2023-02-19T21:32:18;101438.00;;;6.88;100.00
4392;BME280;2210;51.938;8.488;2023-02-19T21:36:19;101447.94;;;6.74;100.00
4392;BME280;2210;51.938;8.488;2023-02-19T21:40:19;101455.13;;;6.75;100.00
4392;BME280;2210;51.938;8.488;2023-02-19T21:44:21;101455.31;;;6.74;100.00
4392;BME280;2210;51.938;8.488;2023-02-19T21:48:30;101452.75;;;6.72;100.00
4392;BME280;2210;51.938;8.488;2023-02-19T21:52:30;101444.53;;;6.72;100.00
4392;BME280;2210;51.938;8.488;2023-02-19T21:56:34;101447.94;;;6.74;100.00
4392;BME280;2210;51.938;8.488;2023-02-19T22:00:35;101427.78;;;6.82;100.00
4392;BME280;2210;51.938;8.488;2023-02-19T22:04:41;101439.16;;;6.79;100.00
4392;BME280;2210;51.938;8.488;2023-02-19T22:08:42;101448.31;;;6.71;100.00
4392;BME280;2210;51.938;8.488;2023-02-19T22:12:43;101445.41;;;6.73;100.00
4392;BME280;2210;51.938;8.488;2023-02-19T22:16:46;101433.22;;;6.75;100.00
4392;BME280;2210;51.938;8.488;2023-02-19T22:20:46;101428.09;;;6.72;100.00
4392;BME280;2210;51.938;8.488;2023-02-19T22:24:46;101426.78;;;6.68;100.00
4392;BME280;2210;51.938;8.488;2023-02-19T22:28:47;101417.72;;;6.68;100.00
4392;BME280;2210;51.938;8.488;2023-02-19T22:32:47;101419.41;;;6.69;100.00
4392;BME280;2210;51.938;8.488;2023-02-19T22:36:47;101418.34;;;6.70;100.00
4392;BME280;2210;51.938;8.488;2023-02-19T22:40:50;101414.38;;;6.72;100.00
4392;BME280;2210;51.938;8.488;2023-02-19T22:44:51;101415.41;;;6.71;100.00
4392;BME280;2210;51.938;8.488;2023-02-19T22:48:54;101412.97;;;6.62;100.00
4392;BME280;2210;51.938;8.488;2023-02-19T22:52:55;101421.28;;;6.68;100.00
4392;BME280;2210;51.938;8.488;2023-02-19T22:56:55;101427.53;;;6.62;100.00
4392;BME280;2210;51.938;8.488;2023-02-19T23:00:58;101435.09;;;6.60;100.00
4392;BME280;2210;51.938;8.488;2023-02-19T23:04:59;101429.81;;;6.58;100.00
4392;BME280;2210;51.938;8.488;2023-02-19T23:09:04;101425.34;;;6.57;100.00
4392;BME280;2210;51.938;8.488;2023-02-19T23:13:05;101435.47;;;6.57;100.00
4392;BME280;2210;51.938;8.488;2023-02-19T23:17:05;101439.25;;;6.56;100.00
4392;BME280;2210;51.938;8.488;2023-02-19T23:21:06;101445.09;;;6.53;100.00
4392;BME280;2210;51.938;8.488;2023-02-19T23:25:06;101448.88;;;6.52;100.00
4392;BME280;2210;51.938;8.488;2023-02-19T23:29:07;101442.06;;;6.48;100.00
4392;BME280;2210;51.938;8.488;2023-02-19T23:33:07;101436.41;;;6.49;100.00
4392;BME280;2210;51.938;8.488;2023-02-19T23:37:10;101428.47;;;6.39;100.00
4392;BME280;2210;51.938;8.488;2023-02-19T23:41:12;101427.63;;;6.39;100.00
4392;BME280;2210;51.938;8.488;2023-02-19T23:45:14;101428.66;;;6.38;100.00
4392;BME280;2210;51.938;8.488;2023-02-19T23:49:15;101415.69;;;6.32;100.00